Time;durP1;ratioP1;P1;durP2;ratioP2;P2;SDS_P1;SDS_P2;PMS_P1;PMS_P2;Temp;Humidity;BMP_temperature;BMP_pressure;BME280_temperature;BME280_humidity;BME280_pressure;Samples;Min_cycle;Max_cycle;Signal;HPM_P1;HPM_P2
2022/09/19 00:01:40;;;;;;;5.78;1.27;;;19.30;99.90;;;;;;5078009;28;20192;-83
2022/09/19 00:04:21;;;;;;;4.03;1.20;;;19.30;99.90;;;;;;5068727;28;20199;-82
2022/09/19 00:06:54;;;;;;;2.60;0.80;;;19.30;99.90;;;;;;5067807;28;20199;-83
2022/09/19 00:09:27;;;;;;;4.40;1.23;;;19.30;99.90;;;;;;5070882;28;20802;-83
2022/09/19 00:11:58;;;;;;;4.18;1.20;;;19.40;99.90;;;;;;5069309;28;20866;-82
2022/09/19 00:14:31;;;;;;;3.80;1.38;;;19.50;99.90;;;;;;5069535;28;20231;-83
2022/09/19 00:17:03;;;;;;;4.82;1.45;;;19.60;99.90;;;;;;5069082;28;20268;-83
2022/09/19 00:19:34;;;;;;;5.55;1.92;;;19.60;99.90;;;;;;5068964;28;20207;-84
2022/09/19 00:22:09;;;;;;;8.23;1.75;;;19.60;99.90;;;;;;5068159;28;20196;-81
2022/09/19 00:24:48;;;;;;;4.13;1.55;;;19.40;99.90;;;;;;5067055;28;20215;-81
2022/09/19 00:27:21;;;;;;;5.00;1.58;;;19.30;99.90;;;;;;5068248;28;20218;-80
2022/09/19 00:29:53;;;;;;;8.60;1.88;;;19.50;99.90;;;;;;5069868;28;20223;-79
2022/09/19 00:32:24;;;;;;;4.78;1.50;;;19.50;99.90;;;;;;5071046;28;20592;-83
2022/09/19 00:34:57;;;;;;;5.55;1.33;;;19.50;99.90;;;;;;5070060;28;20231;-81
2022/09/19 00:37:35;;;;;;;2.58;1.50;;;19.80;99.90;;;;;;5079882;28;20213;-82
2022/09/19 00:40:06;;;;;;;5.32;1.67;;;20.00;99.90;;;;;;5076753;28;20215;-83
2022/09/19 00:42:40;;;;;;;6.82;1.75;;;20.20;99.00;;;;;;5075203;28;20206;-82
2022/09/19 00:45:16;;;;;;;2.28;1.30;;;20.20;96.70;;;;;;5072271;28;21151;-81
2022/09/19 00:47:50;;;;;;;3.30;1.23;;;20.30;98.30;;;;;;5071753;28;20229;-83
2022/09/19 00:50:24;;;;;;;3.03;1.00;;;20.50;96.40;;;;;;5071089;28;20210;-79
2022/09/19 00:53:00;;;;;;;2.50;1.10;;;20.50;95.70;;;;;;5070038;28;20194;-85
2022/09/19 00:55:31;;;;;;;5.85;0.85;;;20.80;94.70;;;;;;5069684;28;20995;-80
2022/09/19 00:58:07;;;;;;;2.00;0.70;;;21.00;91.90;;;;;;5069353;28;20218;-81
2022/09/19 01:00:38;;;;;;;7.80;1.15;;;21.10;89.20;;;;;;5071140;28;20284;-80
2022/09/19 01:03:10;;;;;;;2.75;0.98;;;21.20;83.40;;;;;;5073999;28;20203;-79
2022/09/19 01:05:50;;;;;;;3.60;0.80;;;20.90;78.00;;;;;;5071846;28;20609;-82
2022/09/19 01:08:45;;;;;;;4.82;0.90;;;20.90;75.00;;;;;;5070609;28;21145;-83
2022/09/19 01:11:41;;;;;;;1.95;0.82;;;20.90;74.20;;;;;;5065979;28;21761;-89
2022/09/19 01:14:25;;;;;;;3.17;0.98;;;21.00;76.20;;;;;;5065675;28;20741;-82
2022/09/19 01:17:02;;;;;;;2.15;0.90;;;21.10;74.00;;;;;;5066518;28;20403;-81
2022/09/19 01:19:58;;;;;;;2.58;0.88;;;21.00;73.10;;;;;;5067135;28;20203;-80
2022/09/19 01:22:41;;;;;;;2.58;0.95;;;21.00;74.70;;;;;;5066992;28;20560;-80
2022/09/19 01:25:20;;;;;;;3.30;0.90;;;21.20;71.40;;;;;;5066810;28;20207;-80
2022/09/19 01:28:18;;;;;;;2.00;0.68;;;21.10;73.00;;;;;;5066071;28;20207;-80
2022/09/19 01:31:16;;;;;;;2.70;0.85;;;21.20;72.90;;;;;;5067574;28;20629;-81
2022/09/19 01:33:47;;;;;;;2.95;0.80;;;21.40;73.40;;;;;;5066342;28;20793;-80
2022/09/19 01:36:20;;;;;;;1.88;0.90;;;21.60;72.10;;;;;;5074680;28;20188;-81
2022/09/19 01:38:52;;;;;;;2.63;0.75;;;21.60;70.90;;;;;;5068358;28;20245;-81
2022/09/19 01:41:23;;;;;;;1.42;0.75;;;21.70;70.30;;;;;;5071663;28;20215;-79
2022/09/19 01:43:56;;;;;;;2.38;0.80;;;21.60;71.70;;;;;;5064786;28;20222;-80
2022/09/19 01:46:35;;;;;;;2.08;0.80;;;21.60;71.20;;;;;;5064542;28;20575;-81
2022/09/19 01:49:16;;;;;;;2.45;0.80;;;21.80;70.50;;;;;;5066875;28;20207;-82
2022/09/19 01:51:50;;;;;;;1.50;0.60;;;22.00;68.90;;;;;;5066391;28;20698;-80
2022/09/19 01:54:32;;;;;;;1.50;0.70;;;22.10;70.10;;;;;;5065800;28;20226;-83
2022/09/19 01:57:15;;;;;;;1.25;0.60;;;22.00;68.70;;;;;;5067281;28;20195;-82
2022/09/19 02:00:03;;;;;;;1.45;0.60;;;22.00;69.20;;;;;;5072573;28;20758;-81
2022/09/19 02:02:41;;;;;;;3.15;0.75;;;22.30;70.40;;;;;;5066974;28;20203;-81
2022/09/19 02:05:17;;;;;;;1.23;0.63;;;22.40;63.80;;;;;;5068015;28;20669;-82
2022/09/19 02:07:56;;;;;;;3.88;0.73;;;22.30;65.40;;;;;;5067802;28;20195;-82
2022/09/19 02:10:31;;;;;;;2.55;0.80;;;22.50;67.30;;;;;;5071003;28;20918;-83
2022/09/19 02:13:05;;;;;;;1.80;0.80;;;22.70;67.40;;;;;;5067275;28;20292;-80
2022/09/19 02:15:41;;;;;;;1.73;0.77;;;22.90;64.60;;;;;;5069730;28;20690;-80
2022/09/19 02:18:20;;;;;;;4.63;0.90;;;23.10;62.30;;;;;;5066117;28;20841;-80
2022/09/19 02:20:54;;;;;;;1.83;0.70;;;22.70;59.80;;;;;;5066670;28;20202;-81
2022/09/19 02:23:27;;;;;;;2.65;0.55;;;22.60;59.70;;;;;;5066949;28;20202;-81
2022/09/19 02:26:03;;;;;;;2.33;0.90;;;22.60;60.20;;;;;;5069203;28;20203;-81
2022/09/19 02:28:39;;;;;;;2.88;0.73;;;22.70;59.80;;;;;;5065873;28;20199;-82
2022/09/19 02:31:14;;;;;;;2.30;0.52;;;22.70;60.20;;;;;;5066538;28;20191;-81
2022/09/19 02:33:49;;;;;;;3.03;0.60;;;22.90;62.00;;;;;;5065686;28;20222;-82
2022/09/19 02:36:24;;;;;;;3.00;1.10;;;23.10;61.00;;;;;;5074520;28;20205;-82
2022/09/19 02:39:01;;;;;;;1.88;0.60;;;23.10;58.30;;;;;;5067070;28;20219;-81
2022/09/19 02:41:37;;;;;;;2.67;0.80;;;23.30;60.70;;;;;;5071816;28;21270;-82
2022/09/19 02:44:19;;;;;;;1.50;0.60;;;23.50;58.40;;;;;;5068957;28;20199;-82
2022/09/19 02:47:03;;;;;;;2.10;0.55;;;23.70;59.20;;;;;;5079497;28;20223;-82
2022/09/19 02:49:43;;;;;;;2.15;0.68;;;23.70;57.90;;;;;;5072399;28;20218;-81
2022/09/19 02:52:19;;;;;;;1.73;0.55;;;23.70;57.90;;;;;;5068925;28;20666;-82
2022/09/19 02:54:53;;;;;;;3.70;0.70;;;23.90;58.50;;;;;;5070927;28;20234;-80
2022/09/19 02:57:26;;;;;;;2.88;1.08;;;24.10;55.70;;;;;;5068798;28;21819;-79
2022/09/19 03:00:00;;;;;;;3.42;1.02;;;23.90;56.40;;;;;;5065334;28;20226;-81
2022/09/19 03:02:36;;;;;;;1.63;0.65;;;24.00;57.10;;;;;;5064799;28;20211;-80
2022/09/19 03:05:10;;;;;;;1.55;0.73;;;24.20;57.30;;;;;;5065343;28;20689;-80
2022/09/19 03:07:44;;;;;;;1.95;0.70;;;24.00;56.30;;;;;;5066458;28;20200;-80
2022/09/19 03:10:17;;;;;;;1.23;0.57;;;24.10;57.10;;;;;;5066650;28;20662;-79
2022/09/19 03:12:51;;;;;;;1.70;0.68;;;24.10;55.10;;;;;;5067374;28;20229;-79
2022/09/19 03:15:28;;;;;;;3.20;0.80;;;24.30;56.40;;;;;;5065479;28;20254;-79
2022/09/19 03:18:02;;;;;;;2.47;0.70;;;24.50;56.50;;;;;;5064531;28;21855;-79
2022/09/19 03:20:36;;;;;;;5.18;1.00;;;24.80;54.40;;;;;;5067373;28;20903;-79
2022/09/19 03:23:08;;;;;;;1.85;0.70;;;24.80;54.20;;;;;;5074294;28;20202;-79
2022/09/19 03:25:38;;;;;;;2.47;0.60;;;24.70;52.20;;;;;;5083001;28;20202;-78
2022/09/19 03:28:09;;;;;;;1.48;0.70;;;24.40;54.00;;;;;;5092855;28;20206;-79
2022/09/19 03:30:40;;;;;;;2.00;0.73;;;24.60;53.00;;;;;;5075943;28;20203;-79
2022/09/19 03:33:16;;;;;;;2.28;0.70;;;24.80;52.80;;;;;;5074859;28;21124;-78
2022/09/19 03:35:50;;;;;;;3.60;0.90;;;24.70;53.00;;;;;;5076613;28;20400;-79
2022/09/19 03:38:21;;;;;;;1.90;0.55;;;24.90;51.90;;;;;;5075390;28;20202;-78
2022/09/19 03:40:52;;;;;;;2.55;0.68;;;24.80;52.50;;;;;;5069476;28;20853;-79
2022/09/19 03:43:22;;;;;;;1.48;0.55;;;24.60;49.60;;;;;;5084806;28;20199;-79
2022/09/19 03:45:53;;;;;;;2.65;0.70;;;24.30;51.00;;;;;;5084594;28;20199;-78
2022/09/19 03:48:26;;;;;;;3.15;0.80;;;24.40;51.70;;;;;;5087343;28;20191;-78
2022/09/19 03:50:57;;;;;;;0.98;0.40;;;24.30;50.80;;;;;;5088286;28;20662;-80
2022/09/19 03:53:27;;;;;;;1.90;0.60;;;24.30;51.40;;;;;;5087991;28;20188;-81
2022/09/19 03:55:58;;;;;;;1.73;0.70;;;24.30;51.40;;;;;;5084612;28;20211;-80
2022/09/19 03:58:30;;;;;;;1.30;0.50;;;24.50;51.10;;;;;;5070393;28;20762;-80
2022/09/19 04:01:01;;;;;;;1.50;0.60;;;24.60;50.80;;;;;;5075912;28;20234;-80
2022/09/19 04:03:34;;;;;;;2.65;0.60;;;24.70;51.60;;;;;;5067656;28;20281;-79
2022/09/19 04:06:05;;;;;;;1.65;0.68;;;24.80;51.00;;;;;;5066881;28;20662;-80
2022/09/19 04:08:36;;;;;;;1.55;0.70;;;24.80;50.40;;;;;;5067624;28;20191;-80
2022/09/19 04:11:07;;;;;;;0.98;0.68;;;24.60;49.10;;;;;;5065770;28;20210;-80
2022/09/19 04:13:38;;;;;;;2.20;0.60;;;24.20;49.70;;;;;;5065041;28;20199;-80
2022/09/19 04:16:10;;;;;;;1.33;0.40;;;23.80;50.00;;;;;;5064420;28;20607;-79
2022/09/19 04:18:47;;;;;;;2.92;0.65;;;23.70;52.00;;;;;;5067105;28;20284;-80
2022/09/19 04:21:18;;;;;;;2.10;0.60;;;23.90;52.40;;;;;;5066793;28;20283;-80
2022/09/19 04:23:49;;;;;;;0.45;0.40;;;23.80;50.20;;;;;;5066535;28;20195;-80
2022/09/19 04:26:21;;;;;;;1.25;0.47;;;23.50;51.40;;;;;;5066108;28;20218;-79
2022/09/19 04:28:52;;;;;;;0.95;0.50;;;23.40;51.90;;;;;;5066907;28;20670;-81
2022/09/19 04:31:23;;;;;;;2.78;0.40;;;23.50;50.90;;;;;;5065808;28;20605;-80
2022/09/19 04:33:57;;;;;;;2.75;0.60;;;23.60;51.10;;;;;;5070500;28;20255;-79
2022/09/19 04:36:31;;;;;;;3.03;0.55;;;23.50;49.80;;;;;;5077113;28;20642;-80
2022/09/19 04:39:02;;;;;;;0.82;0.50;;;23.40;50.50;;;;;;5065677;28;20202;-80
2022/09/19 04:41:35;;;;;;;1.33;0.70;;;23.50;51.10;;;;;;5066472;28;20655;-80
2022/09/19 04:44:10;;;;;;;1.23;0.60;;;23.70;50.80;;;;;;5065949;28;20195;-80
2022/09/19 04:46:41;;;;;;;0.98;0.60;;;23.90;51.50;;;;;;5065205;28;20264;-79
2022/09/19 04:49:15;;;;;;;0.80;0.40;;;23.90;49.60;;;;;;5065236;28;20595;-80
2022/09/19 04:51:49;;;;;;;1.75;0.50;;;23.90;49.50;;;;;;5064476;28;20876;-79
2022/09/19 04:54:20;;;;;;;0.95;0.43;;;24.00;50.30;;;;;;5066246;28;20204;-79
2022/09/19 04:56:50;;;;;;;0.73;0.32;;;24.10;49.50;;;;;;5065309;28;20211;-81
2022/09/19 04:59:21;;;;;;;0.88;0.52;;;24.00;48.60;;;;;;5064910;28;20227;-79
2022/09/19 05:01:53;;;;;;;0.93;0.50;;;23.90;50.00;;;;;;5065393;28;20203;-79
2022/09/19 05:04:27;;;;;;;1.70;0.60;;;23.90;50.00;;;;;;5065620;28;20195;-79
2022/09/19 05:06:58;;;;;;;0.85;0.40;;;24.00;51.10;;;;;;5063671;28;20203;-80
2022/09/19 05:09:28;;;;;;;1.60;0.50;;;24.20;49.80;;;;;;5067200;28;20203;-80
2022/09/19 05:11:59;;;;;;;2.20;0.50;;;24.20;49.50;;;;;;5066446;28;20956;-80
2022/09/19 05:14:30;;;;;;;2.00;0.50;;;24.10;48.20;;;;;;5067372;28;20195;-80
2022/09/19 05:17:01;;;;;;;1.38;0.40;;;24.10;49.60;;;;;;5064934;28;20199;-80
2022/09/19 05:19:34;;;;;;;1.65;0.50;;;23.90;47.20;;;;;;5065088;28;20195;-79
2022/09/19 05:22:04;;;;;;;2.15;0.75;;;23.80;48.00;;;;;;5064907;28;20312;-79
2022/09/19 05:24:37;;;;;;;1.33;0.60;;;23.70;48.90;;;;;;5065586;28;20214;-79
2022/09/19 05:27:08;;;;;;;1.33;0.60;;;23.60;49.00;;;;;;5065933;28;20206;-77
2022/09/19 05:29:39;;;;;;;0.52;0.43;;;23.70;47.80;;;;;;5062202;28;20215;-79
2022/09/19 05:32:10;;;;;;;0.80;0.40;;;24.00;45.90;;;;;;5061862;28;20231;-79
2022/09/19 05:34:42;;;;;;;3.50;0.63;;;24.10;45.50;;;;;;5062157;28;20223;-79
2022/09/19 05:37:13;;;;;;;4.35;0.80;;;24.10;51.70;;;;;;5072841;28;20290;-79
2022/09/19 05:39:44;;;;;;;3.67;0.60;;;23.90;54.40;;;;;;5062723;28;20218;-78
2022/09/19 05:42:14;;;;;;;2.70;0.50;;;23.60;57.10;;;;;;5060771;28;20196;-78
2022/09/19 05:44:45;;;;;;;2.63;0.65;;;23.30;58.30;;;;;;5062380;28;20256;-79
2022/09/19 05:47:16;;;;;;;2.38;0.52;;;23.10;59.40;;;;;;5060237;28;20595;-79
2022/09/19 05:49:48;;;;;;;1.27;0.40;;;22.80;59.10;;;;;;5060094;28;20211;-79
2022/09/19 05:55:07;;;;;;;1.02;0.43;;;23.00;58.10;;;;;;5063503;28;20643;-79
2022/09/19 05:57:40;;;;;;;1.92;0.63;;;23.00;58.10;;;;;;5062337;28;20193;-79
2022/09/19 06:00:11;;;;;;;1.23;0.50;;;23.10;58.50;;;;;;5063920;28;20660;-79
2022/09/19 06:02:42;;;;;;;2.47;0.70;;;22.90;58.70;;;;;;5073362;28;20222;-80
2022/09/19 06:05:15;;;;;;;1.55;0.40;;;22.90;59.10;;;;;;5062999;28;20191;-79
2022/09/19 06:07:45;;;;;;;2.42;0.50;;;22.90;59.50;;;;;;5065441;28;20229;-80
2022/09/19 06:10:16;;;;;;;1.20;0.40;;;23.00;59.00;;;;;;5064106;28;20195;-79
2022/09/19 06:12:47;;;;;;;0.93;0.43;;;23.10;58.70;;;;;;5063765;28;20662;-77
2022/09/19 06:15:18;;;;;;;3.05;0.43;;;23.20;58.00;;;;;;5063391;28;20235;-79
2022/09/19 06:17:49;;;;;;;2.50;0.68;;;23.20;56.20;;;;;;5065564;28;20665;-78
2022/09/19 06:20:22;;;;;;;1.67;0.50;;;23.30;56.60;;;;;;5064156;28;20199;-80
2022/09/19 06:22:57;;;;;;;1.92;0.38;;;23.50;56.40;;;;;;5064493;28;20199;-80
2022/09/19 06:25:28;;;;;;;1.75;0.50;;;23.50;55.90;;;;;;5064188;28;20707;-79
2022/09/19 06:28:00;;;;;;;1.27;0.50;;;23.70;56.70;;;;;;5063850;28;20677;-80
2022/09/19 06:30:31;;;;;;;1.65;0.40;;;23.90;55.20;;;;;;5064644;28;20204;-78
2022/09/19 06:33:02;;;;;;;1.58;0.47;;;24.20;54.90;;;;;;5068954;28;20278;-79
2022/09/19 06:35:34;;;;;;;1.02;0.47;;;24.50;54.10;;;;;;5064315;28;20234;-79
2022/09/19 06:38:07;;;;;;;1.52;0.45;;;24.70;53.20;;;;;;5073119;28;20202;-81
2022/09/19 06:40:38;;;;;;;3.47;0.50;;;24.90;52.00;;;;;;5063269;28;20306;-79
2022/09/19 06:43:09;;;;;;;1.10;0.40;;;24.90;52.50;;;;;;5062191;28;20196;-80
2022/09/19 06:45:40;;;;;;;1.55;0.55;;;25.00;53.30;;;;;;5063649;28;20199;-79
2022/09/19 06:48:12;;;;;;;1.25;0.40;;;25.10;52.90;;;;;;5063560;28;20195;-79
2022/09/19 06:50:48;;;;;;;1.23;0.40;;;25.10;52.60;;;;;;5061867;28;20194;-80
2022/09/19 06:53:19;;;;;;;1.23;0.55;;;25.10;52.90;;;;;;5063740;28;20253;-79
2022/09/19 06:55:49;;;;;;;1.65;0.60;;;25.00;53.60;;;;;;5065988;28;20238;-80
2022/09/19 06:58:20;;;;;;;3.58;0.60;;;24.90;53.20;;;;;;5067754;28;20203;-79
2022/09/19 07:00:51;;;;;;;2.45;0.70;;;24.90;53.50;;;;;;5067017;28;20300;-80
2022/09/19 07:03:22;;;;;;;2.70;0.50;;;24.40;52.80;;;;;;5068014;28;20776;-79
2022/09/19 07:05:54;;;;;;;1.15;0.50;;;24.10;52.20;;;;;;5069134;28;20210;-80
2022/09/19 07:08:25;;;;;;;1.95;0.50;;;23.70;52.80;;;;;;5067246;28;20206;-80
2022/09/19 07:11:00;;;;;;;1.42;0.57;;;23.30;54.70;;;;;;5068471;28;20203;-80
2022/09/19 07:13:30;;;;;;;1.17;0.32;;;23.00;55.30;;;;;;5067767;28;20669;-81
2022/09/19 07:16:02;;;;;;;3.25;0.60;;;22.70;56.10;;;;;;5066465;28;20218;-79
2022/09/19 07:18:35;;;;;;;1.35;0.40;;;22.30;57.70;;;;;;5066912;28;20265;-80
2022/09/19 07:21:07;;;;;;;0.85;0.40;;;22.00;59.10;;;;;;5067761;28;20243;-79
2022/09/19 07:23:38;;;;;;;3.30;0.47;;;21.80;60.50;;;;;;5066338;28;20593;-79
2022/09/19 07:26:09;;;;;;;2.08;0.55;;;21.60;61.90;;;;;;5065814;28;20224;-81
2022/09/19 07:28:40;;;;;;;2.13;0.55;;;21.40;62.50;;;;;;5064525;28;20218;-80
2022/09/19 07:31:11;;;;;;;1.33;0.43;;;21.30;62.10;;;;;;5063652;28;20219;-80
2022/09/19 07:36:31;;;;;;;2.78;0.40;;;20.80;64.90;;;;;;5079297;28;20212;-79
2022/09/19 07:39:02;;;;;;;2.33;0.60;;;20.70;65.50;;;;;;5073567;28;20230;-79
2022/09/19 07:41:35;;;;;;;1.20;0.50;;;20.50;67.60;;;;;;5067720;28;21536;-78
2022/09/19 07:44:06;;;;;;;1.65;0.57;;;20.40;67.10;;;;;;5089114;28;20201;-79
2022/09/19 07:46:37;;;;;;;1.08;0.52;;;20.30;68.00;;;;;;5095944;28;20552;-79
2022/09/19 07:49:12;;;;;;;0.88;0.52;;;20.20;67.40;;;;;;5096304;28;20197;-80
2022/09/19 07:51:45;;;;;;;1.40;0.50;;;20.00;67.50;;;;;;5075342;28;20199;-77
2022/09/19 07:54:16;;;;;;;2.10;0.65;;;20.00;69.10;;;;;;5075417;28;20203;-79
2022/09/19 07:56:47;;;;;;;1.27;0.40;;;19.90;70.40;;;;;;5073453;28;20219;-79
2022/09/19 07:59:20;;;;;;;1.40;0.60;;;19.90;72.20;;;;;;5072884;28;20254;-79
2022/09/19 08:01:52;;;;;;;1.35;0.80;;;19.90;73.70;;;;;;5072834;28;20219;-79
2022/09/19 08:04:26;;;;;;;1.08;0.80;;;19.80;76.60;;;;;;5071207;28;20199;-78
2022/09/19 08:06:59;;;;;;;2.85;1.27;;;19.70;78.40;;;;;;5070757;28;21114;-78
2022/09/19 08:09:33;;;;;;;2.53;1.13;;;19.60;79.50;;;;;;5070164;28;20639;-79
2022/09/19 08:12:05;;;;;;;2.80;1.48;;;19.60;81.40;;;;;;5071979;28;20203;-79
2022/09/19 08:14:37;;;;;;;1.48;0.98;;;19.60;83.10;;;;;;5068089;28;20202;-80
2022/09/19 08:17:07;;;;;;;2.55;1.08;;;19.60;84.40;;;;;;5074044;28;20299;-80
2022/09/19 08:19:38;;;;;;;2.35;0.77;;;19.50;84.20;;;;;;5070020;28;20200;-80
2022/09/19 08:22:11;;;;;;;2.05;0.70;;;19.50;84.00;;;;;;5066241;28;20210;-80
2022/09/19 08:24:41;;;;;;;2.35;0.82;;;19.40;84.60;;;;;;5065143;28;20679;-80
2022/09/19 08:27:13;;;;;;;1.52;0.80;;;19.40;86.50;;;;;;5066022;28;20300;-80
2022/09/19 08:29:44;;;;;;;2.33;1.20;;;19.30;88.20;;;;;;5066260;28;20199;-80
2022/09/19 08:32:14;;;;;;;2.45;1.05;;;19.30;90.00;;;;;;5068199;28;20217;-82
2022/09/19 08:34:51;;;;;;;3.13;0.88;;;19.20;88.80;;;;;;5068384;28;20191;-84
2022/09/19 08:37:25;;;;;;;1.63;0.70;;;19.20;90.00;;;;;;5089120;28;20231;-82
2022/09/19 08:42:46;;;;;;;1.15;0.70;;;19.20;90.10;;;;;;5069923;28;20341;-78
2022/09/19 08:45:25;;;;;;;1.88;0.90;;;19.10;90.90;;;;;;5067884;28;20200;-82
2022/09/19 08:47:59;;;;;;;2.78;1.05;;;19.10;91.60;;;;;;5066549;28;20665;-82
2022/09/19 08:50:36;;;;;;;8.10;1.35;;;19.00;92.70;;;;;;5066205;28;20219;-81
2022/09/19 08:53:16;;;;;;;2.33;0.95;;;19.00;93.70;;;;;;5069353;28;20199;-84
2022/09/19 08:55:50;;;;;;;1.92;0.70;;;19.00;95.60;;;;;;5071246;28;20218;-79
2022/09/19 08:58:23;;;;;;;3.25;0.63;;;19.00;96.30;;;;;;5068495;28;20250;-81
2022/09/19 09:00:55;;;;;;;2.97;0.80;;;19.00;97.50;;;;;;5070173;28;20220;-82
2022/09/19 09:03:40;;;;;;;0.88;0.70;;;18.90;98.50;;;;;;5072550;28;20199;-80
2022/09/19 09:06:26;;;;;;;2.15;1.23;;;18.90;99.70;;;;;;5070044;28;20199;-80
2022/09/19 09:09:09;;;;;;;0.90;0.80;;;18.90;99.90;;;;;;5070190;28;20525;-80
2022/09/19 09:11:50;;;;;;;2.05;0.90;;;18.90;99.90;;;;;;5065163;28;20309;-82
2022/09/19 09:14:30;;;;;;;1.85;1.00;;;18.90;99.90;;;;;;5067291;28;20195;-82
2022/09/19 09:17:21;;;;;;;1.88;0.93;;;18.80;99.90;;;;;;5064182;28;20230;-81
2022/09/19 09:20:11;;;;;;;1.90;0.90;;;18.80;99.90;;;;;;5066453;28;20213;-81
2022/09/19 09:22:48;;;;;;;2.35;0.90;;;18.80;99.90;;;;;;5071102;28;20199;-87
2022/09/19 09:25:29;;;;;;;3.83;1.00;;;18.70;99.90;;;;;;5064766;28;21858;-83
2022/09/19 09:28:05;;;;;;;1.65;0.80;;;18.70;99.90;;;;;;5060845;28;20219;-83
2022/09/19 09:30:40;;;;;;;2.28;0.80;;;18.60;99.90;;;;;;5062207;28;20374;-81
2022/09/19 09:33:21;;;;;;;2.20;1.27;;;18.60;99.90;;;;;;5065409;28;20232;-82
2022/09/19 09:36:01;;;;;;;2.78;1.80;;;18.60;99.90;;;;;;5073142;28;20203;-82
2022/09/19 09:38:34;;;;;;;1.90;1.63;;;18.60;99.90;;;;;;5062048;28;21466;-82
2022/09/19 09:44:20;;;;;;;2.75;1.10;;;18.50;99.90;;;;;;5045448;28;20793;-81
2022/09/19 09:47:01;;;;;;;1.17;1.05;;;18.50;99.90;;;;;;5063684;28;20201;-79
2022/09/19 09:49:33;;;;;;;3.40;1.20;;;18.50;99.90;;;;;;5066174;28;20211;-79
2022/09/19 09:52:23;;;;;;;2.63;1.27;;;18.50;99.90;;;;;;5061684;28;22258;-81
2022/09/19 09:58:00;;;;;;;2.50;1.10;;;18.40;99.90;;;;;;5064414;28;20712;-80
2022/09/19 10:03:38;;;;;;;3.25;1.15;;;18.40;99.90;;;;;;5064560;28;20657;-80
2022/09/19 10:06:15;;;;;;;3.22;1.17;;;18.40;99.90;;;;;;5064679;28;20207;-82
2022/09/19 10:08:58;;;;;;;2.38;1.00;;;18.40;99.90;;;;;;5071391;28;20219;-82
2022/09/19 10:11:39;;;;;;;2.08;0.95;;;18.30;99.90;;;;;;5064772;28;20206;-82
2022/09/19 10:14:20;;;;;;;3.13;1.23;;;18.30;99.90;;;;;;5061389;28;20195;-82
2022/09/19 10:16:52;;;;;;;1.42;1.08;;;18.30;99.90;;;;;;5062817;28;20669;-82
2022/09/19 10:19:28;;;;;;;3.10;1.08;;;18.20;99.90;;;;;;5064922;28;21892;-82
2022/09/19 10:22:01;;;;;;;3.47;1.20;;;18.20;99.90;;;;;;5066133;28;20681;-82
2022/09/19 10:24:47;;;;;;;4.57;1.35;;;18.20;99.90;;;;;;5065986;28;20210;-82
2022/09/19 10:27:23;;;;;;;2.00;0.98;;;18.20;99.90;;;;;;5066552;28;20239;-81
2022/09/19 10:30:04;;;;;;;2.22;1.17;;;18.20;99.90;;;;;;5065951;28;20253;-82
2022/09/19 10:32:37;;;;;;;3.67;1.30;;;18.10;99.90;;;;;;5070259;28;20849;-82
2022/09/19 10:35:28;;;;;;;3.17;0.95;;;18.10;99.90;;;;;;5067509;28;20724;-82
2022/09/19 10:38:03;;;;;;;2.50;1.10;;;18.10;99.90;;;;;;5067450;28;20227;-82
2022/09/19 10:40:37;;;;;;;1.95;0.90;;;18.10;99.90;;;;;;5066234;28;20195;-82
2022/09/19 10:43:08;;;;;;;3.45;1.20;;;18.00;99.90;;;;;;5065143;28;20202;-79
2022/09/19 10:45:48;;;;;;;3.55;1.20;;;18.00;99.90;;;;;;5063619;28;20199;-81
2022/09/19 10:48:23;;;;;;;2.15;0.93;;;18.00;99.90;;;;;;5064427;28;20203;-81
2022/09/19 10:50:55;;;;;;;4.13;1.33;;;18.00;99.90;;;;;;5064169;28;20657;-81
2022/09/19 10:53:30;;;;;;;2.72;1.30;;;17.90;99.90;;;;;;5063629;28;21876;-81
2022/09/19 10:56:07;;;;;;;2.10;1.25;;;17.90;99.90;;;;;;5064186;28;20195;-81
2022/09/19 10:58:42;;;;;;;3.17;1.42;;;17.90;99.90;;;;;;5063927;28;20203;-81
2022/09/19 11:01:24;;;;;;;2.65;1.40;;;17.80;99.90;;;;;;5063815;28;20294;-80
2022/09/19 11:04:06;;;;;;;3.30;1.67;;;17.80;99.90;;;;;;5064255;28;20191;-82
2022/09/19 11:06:37;;;;;;;4.03;1.65;;;17.80;99.90;;;;;;5065566;28;20206;-81
2022/09/19 11:09:25;;;;;;;3.38;1.70;;;17.80;99.90;;;;;;5069632;28;20222;-80
2022/09/19 11:12:06;;;;;;;2.67;1.70;;;17.80;99.90;;;;;;5064971;28;20208;-81
2022/09/19 11:14:41;;;;;;;6.13;1.92;;;17.80;99.90;;;;;;5064689;28;20247;-81
2022/09/19 11:17:47;;;;;;;7.22;1.90;;;17.80;99.90;;;;;;5064975;28;20226;-82
2022/09/19 11:20:32;;;;;;;3.13;1.77;;;17.70;99.90;;;;;;5045202;28;20206;-84
2022/09/19 11:23:37;;;;;;;4.35;1.90;;;17.70;99.90;;;;;;5065646;28;20252;-83
2022/09/19 11:26:20;;;;;;;5.22;2.30;;;17.70;99.90;;;;;;5067627;28;20207;-82
2022/09/19 11:29:06;;;;;;;3.92;2.22;;;17.60;99.90;;;;;;5065719;28;20199;-82
2022/09/19 11:31:45;;;;;;;4.18;2.00;;;17.50;99.90;;;;;;5067702;28;20198;-82
2022/09/19 11:34:23;;;;;;;6.35;2.10;;;17.50;99.90;;;;;;5070679;28;20202;-82
2022/09/19 11:37:05;;;;;;;3.85;1.98;;;17.40;99.90;;;;;;5076510;28;20214;-82
2022/09/19 11:39:47;;;;;;;3.17;1.85;;;17.40;99.90;;;;;;5062071;28;20280;-83
2022/09/19 11:45:53;;;;;;;4.13;2.30;;;17.40;99.90;;;;;;5057911;27;20693;-86
2022/09/19 11:48:54;;;;;;;4.43;2.28;;;17.40;99.90;;;;;;5052328;28;20657;-84
2022/09/19 11:51:35;;;;;;;3.95;2.30;;;17.50;99.90;;;;;;5042798;28;20223;-85
2022/09/19 11:54:21;;;;;;;3.17;2.10;;;17.50;99.90;;;;;;5042121;28;20630;-84
2022/09/19 11:57:03;;;;;;;3.55;2.30;;;17.40;99.90;;;;;;5046056;28;20192;-84
2022/09/19 11:59:47;;;;;;;4.30;2.15;;;17.40;99.90;;;;;;5049609;28;20185;-85
2022/09/19 12:02:37;;;;;;;3.58;2.20;;;17.30;99.90;;;;;;5051495;28;20735;-84
2022/09/19 12:05:23;;;;;;;5.18;2.13;;;17.20;99.90;;;;;;5048889;28;20265;-85
2022/09/19 12:08:08;;;;;;;5.25;2.17;;;17.20;99.90;;;;;;5047629;28;20622;-85
2022/09/19 12:10:45;;;;;;;4.05;2.00;;;17.20;99.90;;;;;;5047709;28;20678;-83
2022/09/19 12:13:21;;;;;;;7.45;2.33;;;17.10;99.90;;;;;;5044274;28;20241;-86
2022/09/19 12:15:58;;;;;;;4.05;1.83;;;17.00;99.90;;;;;;5045767;28;20282;-84
2022/09/19 12:18:37;;;;;;;3.95;1.98;;;17.00;99.90;;;;;;5046091;28;20723;-84
2022/09/19 12:21:12;;;;;;;3.30;1.98;;;16.90;99.90;;;;;;5047216;28;22604;-84
2022/09/19 12:26:36;;;;;;;3.00;2.03;;;16.90;99.90;;;;;;5046085;28;20199;-83
2022/09/19 12:29:18;;;;;;;6.30;2.10;;;16.90;99.90;;;;;;5047787;28;21808;-85
2022/09/19 12:31:53;;;;;;;3.17;1.83;;;16.90;99.90;;;;;;5048581;28;20200;-83
2022/09/19 12:34:35;;;;;;;3.90;2.22;;;16.90;99.90;;;;;;5047511;28;20288;-83
2022/09/19 12:37:15;;;;;;;5.90;2.00;;;16.80;99.90;;;;;;5044626;28;20200;-84
2022/09/19 12:39:52;;;;;;;2.47;1.55;;;16.80;99.90;;;;;;5049844;28;20203;-85
2022/09/19 12:42:28;;;;;;;4.93;2.00;;;16.80;99.90;;;;;;5048741;28;21180;-82
2022/09/19 12:45:12;;;;;;;4.00;1.80;;;16.80;99.90;;;;;;5044745;28;20235;-83
2022/09/19 12:48:04;;;;;;;1.73;1.40;;;16.80;99.90;;;;;;5043187;28;20281;-83
2022/09/19 12:50:41;;;;;;;2.95;1.52;;;16.70;99.90;;;;;;5042404;28;20227;-83
2022/09/19 12:53:33;;;;;;;3.38;1.55;;;16.70;99.90;;;;;;5044950;28;20219;-83
2022/09/19 12:56:08;;;;;;;3.15;1.52;;;16.70;99.90;;;;;;5035521;28;20323;-83
2022/09/19 12:58:53;;;;;;;2.88;1.33;;;16.60;99.90;;;;;;5031929;28;20204;-82
2022/09/19 13:01:31;;;;;;;2.58;1.42;;;16.60;99.90;;;;;;5031939;28;20282;-82
2022/09/19 13:04:25;;;;;;;10.32;1.95;;;16.50;99.90;;;;;;5032779;28;20221;-84
2022/09/19 13:07:09;;;;;;;2.92;1.30;;;16.50;99.90;;;;;;5033511;28;20205;-85
2022/09/19 13:09:47;;;;;;;1.30;1.10;;;16.60;99.90;;;;;;5037483;28;20208;-84
2022/09/19 13:12:25;;;;;;;1.58;1.00;;;16.60;99.90;;;;;;5047130;28;20200;-84
2022/09/19 13:14:58;;;;;;;1.92;1.15;;;16.50;99.90;;;;;;5040312;28;20662;-85
2022/09/19 13:23:32;;;;;;;4.30;1.20;;;16.50;99.90;;;;;;5041898;28;20271;-86
2022/09/19 13:26:35;;;;;;;2.08;1.30;;;16.50;99.90;;;;;;5041061;28;20266;-85
2022/09/19 13:29:12;;;;;;;2.03;1.15;;;16.50;99.90;;;;;;5040543;28;20286;-86
2022/09/19 13:32:04;;;;;;;2.50;1.10;;;16.40;99.90;;;;;;5039627;28;20358;-85
2022/09/19 13:35:03;;;;;;;1.85;1.00;;;16.30;99.90;;;;;;5043442;28;20211;-87
2022/09/19 13:37:57;;;;;;;1.70;1.10;;;16.30;99.90;;;;;;5052874;28;22027;-86
2022/09/19 13:40:56;;;;;;;1.95;1.00;;;16.30;99.90;;;;;;5039698;28;20205;-82
2022/09/19 13:43:58;;;;;;;2.85;0.75;;;16.30;99.90;;;;;;5037510;28;20201;-83
2022/09/19 13:46:34;;;;;;;1.30;0.80;;;16.30;99.90;;;;;;5038041;28;20211;-83
2022/09/19 13:49:14;;;;;;;1.63;0.95;;;16.20;99.90;;;;;;5036426;28;20210;-82
2022/09/19 13:51:46;;;;;;;0.75;0.70;;;16.20;99.90;;;;;;5036080;28;20281;-82
2022/09/19 13:54:50;;;;;;;2.92;1.00;;;16.20;99.90;;;;;;5036011;28;20200;-82
2022/09/19 13:57:28;;;;;;;2.28;0.90;;;16.20;99.90;;;;;;5031502;28;20199;-82
2022/09/19 14:00:00;;;;;;;3.88;1.00;;;16.20;99.90;;;;;;5034732;28;20234;-81
2022/09/19 14:02:43;;;;;;;2.20;0.90;;;16.20;99.90;;;;;;5037918;28;20204;-81
2022/09/19 14:05:19;;;;;;;1.73;0.90;;;16.20;99.90;;;;;;5032349;28;20235;-81